地図

経路データ

SID SEASON NUMBER BASIN SUBBASIN NAME ISO_TIME NATURE LAT LON WMO_WIND WMO_PRES WMO_AGENCY TRACK_TYPE DIST2LAND LANDFALL IFLAG USA_AGENCY USA_ATCF_ID USA_LAT USA_LON USA_RECORD USA_STATUS USA_WIND USA_PRES USA_SSHS USA_R34_NE USA_R34_SE USA_R34_SW USA_R34_NW USA_R50_NE USA_R50_SE USA_R50_SW USA_R50_NW USA_R64_NE USA_R64_SE USA_R64_SW USA_R64_NW USA_POCI USA_ROCI USA_RMW USA_EYE TOKYO_LAT TOKYO_LON TOKYO_GRADE TOKYO_WIND TOKYO_PRES TOKYO_R50_DIR TOKYO_R50_LONG TOKYO_R50_SHORT TOKYO_R30_DIR TOKYO_R30_LONG TOKYO_R30_SHORT TOKYO_LAND CMA_LAT CMA_LON CMA_CAT CMA_WIND CMA_PRES HKO_LAT HKO_LON HKO_CAT HKO_WIND HKO_PRES NEWDELHI_LAT NEWDELHI_LON NEWDELHI_GRADE NEWDELHI_WIND NEWDELHI_PRES NEWDELHI_CI NEWDELHI_DP NEWDELHI_POCI REUNION_LAT REUNION_LON REUNION_TYPE REUNION_WIND REUNION_PRES REUNION_TNUM REUNION_CI REUNION_RMW REUNION_R34_NE REUNION_R34_SE REUNION_R34_SW REUNION_R34_NW REUNION_R50_NE REUNION_R50_SE REUNION_R50_SW REUNION_R50_NW REUNION_R64_NE REUNION_R64_SE REUNION_R64_SW REUNION_R64_NW BOM_LAT BOM_LON BOM_TYPE BOM_WIND BOM_PRES BOM_TNUM BOM_CI BOM_RMW BOM_R34_NE BOM_R34_SE BOM_R34_SW BOM_R34_NW BOM_R50_NE BOM_R50_SE BOM_R50_SW BOM_R50_NW BOM_R64_NE BOM_R64_SE BOM_R64_SW BOM_R64_NW BOM_ROCI BOM_POCI BOM_EYE BOM_POS_METHOD BOM_PRES_METHOD NADI_LAT NADI_LON NADI_CAT NADI_WIND NADI_PRES WELLINGTON_LAT WELLINGTON_LON WELLINGTON_WIND WELLINGTON_PRES DS824_LAT DS824_LON DS824_STAGE DS824_WIND DS824_PRES TD9636_LAT TD9636_LON TD9636_STAGE TD9636_WIND TD9636_PRES TD9635_LAT TD9635_LON TD9635_WIND TD9635_PRES TD9635_ROCI NEUMANN_LAT NEUMANN_LON NEUMANN_CLASS NEUMANN_WIND NEUMANN_PRES MLC_LAT MLC_LON MLC_CLASS MLC_WIND MLC_PRES USA_GUST BOM_GUST BOM_GUST_PER REUNION_GUST REUNION_GUST_PER USA_SEAHGT USA_SEARAD_NE USA_SEARAD_SE USA_SEARAD_SW USA_SEARAD_NW STORM_SPEED STORM_DIR
1905070S14053 1905 11 SI MM NOT_NAMED 1905-03-11 06:00:00 NR -14.2000 53.4000 reunion spur-split 331 317 _____O________ -1 -14.2000 53.4000 99 9.90000 2 224
1905070S14053 1905 11 SI MM NOT_NAMED 1905-03-11 09:00:00 NR -14.2568 53.3427 spur-split 317 317 _____P________ -1 -14.2568 53.3427 99 2 223
1905070S14053 1905 11 SI MM NOT_NAMED 1905-03-11 12:00:00 NR -14.3225 53.2814 spur-split 317 303 _____P________ -1 -14.3225 53.2814 99 2 220
1905070S14053 1905 11 SI MM NOT_NAMED 1905-03-11 15:00:00 NR -14.4060 53.2119 spur-split 303 290 _____P________ -1 -14.4060 53.2119 99 2 217
1905070S14053 1905 11 SI MM NOT_NAMED 1905-03-11 18:00:00 NR -14.5160 53.1304 spur-split 290 274 _____P________ -1 -14.5160 53.1304 99 3 214
1905070S14053 1905 11 SI MM NOT_NAMED 1905-03-11 21:00:00 NR -14.6616 53.0326 spur-split 274 261 _____P________ -1 -14.6616 53.0326 99 4 212
1905070S14053 1905 11 SI MM NOT_NAMED 1905-03-12 00:00:00 NR -14.8515 52.9144 spur-split 260 247 _____P________ -1 -14.8515 52.9144 99 5 210
1905070S14053 1905 11 SI MM NOT_NAMED 1905-03-12 03:00:00 NR -15.0947 52.7716 spur-split 247 225 _____P________ -1 -15.0947 52.7716 99 6 209
1905070S14053 1905 11 SI MM NOT_NAMED 1905-03-12 06:00:00 NR -15.4000 52.6000 reunion spur-split 225 206 _____O________ -1 -15.4000 52.6000 99 9.90000 8 208
1905070S14053 1905 11 SI MM NOT_NAMED 1905-03-12 09:00:00 NR -15.7736 52.3978 spur-split 208 198 _____P________ -1 -15.7736 52.3978 99 9 207
1905070S14053 1905 11 SI MM NOT_NAMED 1905-03-12 12:00:00 NR -16.2111 52.1734 spur-split 202 197 _____P________ -1 -16.2111 52.1734 99 10 205
1905070S14053 1905 11 SI MM NOT_NAMED 1905-03-12 15:00:00 NR -16.7057 51.9382 spur-split 197 197 _____P________ -1 -16.7057 51.9382 99 11 203
1905070S14053 1905 11 SI MM NOT_NAMED 1905-03-12 18:00:00 NR -17.2507 51.7035 spur-split 209 202 _____P________ -1 -17.2507 51.7035 99 12 201
1905070S14053 1905 11 SI MM NOT_NAMED 1905-03-12 21:00:00 NR -17.8391 51.4806 spur-split 212 200 _____P________ -1 -17.8391 51.4806 99 13 198
1905070S14053 1905 11 SI MM NOT_NAMED 1905-03-13 00:00:00 NR -18.4645 51.2811 spur-split 203 195 _____P________ -1 -18.4645 51.2811 99 13 195
1905070S14053 1905 11 SI MM NOT_NAMED 1905-03-13 03:00:00 NR -19.1203 51.1169 spur-split 204 204 _____P________ -1 -19.1203 51.1169 99 14 191
1905070S14053 1905 11 SI MM NOT_NAMED 1905-03-13 06:00:00 NR -19.8000 51.0000 reunion spur-split 218 218 _____O________ -1 -19.8000 51.0000 99 9.90000 15 186
1905070S14053 1905 11 SI MM NOT_NAMED 1905-03-13 09:00:00 NR -20.5585 50.9672 spur-split 239 239 _____P________ -1 -20.5585 50.9672 99 16 181
1905070S14053 1905 11 SI MM NOT_NAMED 1905-03-13 12:00:00 NR -21.3605 50.9810 spur-split 273 273 _____P________ -1 -21.3605 50.9810 99 16 178
1905070S14053 1905 11 SI MM NOT_NAMED 1905-03-13 15:00:00 NR -22.1813 51.0337 spur-split 292 292 _____P________ -1 -22.1813 51.0337 99 17 176
1905070S14053 1905 11 SI MM NOT_NAMED 1905-03-13 18:00:00 NR -22.9962 51.1176 spur-split 326 326 _____P________ -1 -22.9962 51.1176 99 16 174
1905070S14053 1905 11 SI MM NOT_NAMED 1905-03-13 21:00:00 NR -23.7803 51.2247 spur-split 359 359 _____P________ -1 -23.7803 51.2247 99 15 172
1905070S14053 1905 11 SI MM NOT_NAMED 1905-03-14 00:00:00 NR -24.5088 51.3466 spur-split 385 385 _____P________ -1 -24.5088 51.3466 99 14 171
1905070S14053 1905 11 SI MM NOT_NAMED 1905-03-14 03:00:00 NR -25.1570 51.4747 spur-split 425 425 _____P________ -1 -25.1570 51.4747 99 12 169
1905070S14053 1905 11 SI MM NOT_NAMED 1905-03-14 06:00:00 NR -25.7000 51.6000 reunion spur-split 452 452 _____O________ -1 -25.7000 51.6000 99 9.90000 10 167
1905070S14053 1905 11 SI MM NOT_NAMED 1905-03-14 09:00:00 NR -26.1203 51.7151 spur-split 476 476 _____P________ -1 -26.1203 51.7151 99 8 165
1905070S14053 1905 11 SI MM NOT_NAMED 1905-03-14 12:00:00 NR -26.4273 51.8195 spur-split 495 495 _____P________ -1 -26.4273 51.8195 99 5 161
1905070S14053 1905 11 SI MM NOT_NAMED 1905-03-14 15:00:00 NR -26.6373 51.9145 spur-split 512 512 _____P________ -1 -26.6373 51.9145 99 4 154
1905070S14053 1905 11 SI MM NOT_NAMED 1905-03-14 18:00:00 NR -26.7667 52.0015 spur-split 529 529 _____P________ -1 -26.7667 52.0015 99 2 143
1905070S14053 1905 11 SI MM NOT_NAMED 1905-03-14 21:00:00 NR -26.8315 52.0820 spur-split 538 538 _____P________ -1 -26.8315 52.0820 99 2 121
1905070S14053 1905 11 SI MM NOT_NAMED 1905-03-15 00:00:00 NR -26.8479 52.1575 spur-split 547 547 _____P________ -1 -26.8479 52.1574 99 1 90
1905070S14053 1905 11 SI MM NOT_NAMED 1905-03-15 03:00:00 NR -26.8320 52.2296 spur-split 547 547 _____P________ -1 -26.8320 52.2296 99 1 69
1905070S14053 1905 11 SI MM NOT_NAMED 1905-03-15 06:00:00 NR -26.8000 52.3000 reunion spur-split 557 _____O________ -1 -26.8000 52.3000 99 9.90000 1 66

IBTrACS Databaseについて

本データベースは、米国NOAAが公開する1842年以降の世界の熱帯低気圧のベストトラックデータアーカイブInternational Best Track Archive for Climate Stewardship (IBTrACS)を、ウェブで閲覧しやすい形式に変換したものです。

最終更新日:2021-11-26